createdAt,value
2023-04-22T00:01:18.184Z,101334.75
2023-04-22T00:03:46.368Z,101321.59
2023-04-22T00:06:14.567Z,101327.72
2023-04-22T00:08:42.490Z,101320.78
2023-04-22T00:11:10.897Z,101318.13
2023-04-22T00:13:40.262Z,101319.03
2023-04-22T00:16:08.476Z,101322.59
2023-04-22T00:18:36.629Z,101310.34
2023-04-22T00:21:04.748Z,101307.75
2023-04-22T00:23:32.744Z,101301.59
2023-04-22T00:26:00.731Z,101300.69
2023-04-22T00:28:28.760Z,101284.97
2023-04-22T00:30:58.876Z,101285.88
2023-04-22T00:33:26.944Z,101286.78
2023-04-22T00:35:54.912Z,101283.31
2023-04-22T00:38:22.950Z,101285.94
2023-04-22T00:40:50.904Z,101282.47
2023-04-22T00:43:18.900Z,101272.78
2023-04-22T00:45:46.809Z,101272.78
2023-04-22T00:48:16.126Z,101277.25
2023-04-22T00:50:44.120Z,101270.22
2023-04-22T00:53:12.140Z,101273.78
2023-04-22T00:55:40.020Z,101276.41
2023-04-22T00:58:07.956Z,101270.31
2023-04-22T01:00:35.996Z,101267.69
2023-04-22T01:03:04.233Z,101267.72
2023-04-22T01:05:33.721Z,101254.59
2023-04-22T01:08:01.746Z,101248.53
2023-04-22T01:10:29.672Z,101245.00
2023-04-22T01:12:57.647Z,101243.25
2023-04-22T01:15:25.587Z,101242.38
2023-04-22T01:17:53.736Z,101241.50
2023-04-22T01:20:21.809Z,101240.66
2023-04-22T01:22:51.133Z,101236.25
2023-04-22T01:25:20.430Z,101234.56
2023-04-22T01:27:48.353Z,101228.47
2023-04-22T01:30:17.008Z,101237.22
2023-04-22T01:32:44.951Z,101233.75
2023-04-22T01:35:12.914Z,101231.97
2023-04-22T01:37:40.851Z,101227.63
2023-04-22T01:40:10.242Z,101221.53
2023-04-22T01:42:39.585Z,101219.81
2023-04-22T01:45:08.671Z,101218.06
2023-04-22T01:47:36.638Z,101216.31
2023-04-22T01:50:04.808Z,101218.16
2023-04-22T01:52:32.739Z,101217.31
2023-04-22T01:55:01.318Z,101217.31
2023-04-22T01:57:29.385Z,101214.69
2023-04-22T01:59:58.929Z,101209.47
2023-04-22T02:02:26.969Z,101198.09
2023-04-22T02:04:54.986Z,101194.56
2023-04-22T02:07:22.943Z,101197.22
2023-04-22T02:09:51.127Z,101196.31
2023-04-22T02:12:19.093Z,101190.25
2023-04-22T02:14:46.986Z,101184.97
2023-04-22T02:17:17.708Z,101192.03
2023-04-22T02:19:45.654Z,101178.91
2023-04-22T02:22:13.602Z,101183.34
2023-04-22T02:24:43.058Z,101185.03
2023-04-22T02:27:11.037Z,101172.81
2023-04-22T02:29:39.062Z,101174.56
2023-04-22T02:32:07.420Z,101170.22
2023-04-22T02:34:37.332Z,101161.44
2023-04-22T02:37:05.540Z,101157.97
2023-04-22T02:39:33.485Z,101152.72
2023-04-22T02:42:03.074Z,101147.47
2023-04-22T02:44:31.055Z,101146.63
2023-04-22T02:46:59.061Z,101139.66
2023-04-22T02:49:27.080Z,101137.88
2023-04-22T02:51:56.347Z,101131.75
2023-04-22T02:54:24.276Z,101132.69
2023-04-22T02:56:52.249Z,101137.94
2023-04-22T02:59:20.155Z,101131.81
2023-04-22T03:01:48.043Z,101123.13
2023-04-22T03:04:16.421Z,101127.53
2023-04-22T03:06:44.425Z,101122.28
2023-04-22T03:09:13.758Z,101124.06
2023-04-22T03:11:41.740Z,101117.91
2023-04-22T03:14:09.729Z,101117.91
2023-04-22T03:16:37.922Z,101108.28
2023-04-22T03:19:05.947Z,101104.78
2023-04-22T03:21:33.883Z,101110.06
2023-04-22T03:24:01.845Z,101095.16
2023-04-22T03:26:31.181Z,101088.19
2023-04-22T03:28:59.094Z,101085.56
2023-04-22T03:31:27.036Z,101086.47
2023-04-22T03:33:55.101Z,101092.56
2023-04-22T03:36:23.030Z,101087.38
2023-04-22T03:38:51.045Z,101076.03
2023-04-22T03:41:19.020Z,101078.66
2023-04-22T03:43:48.350Z,101075.16
2023-04-22T03:46:17.256Z,101075.16
2023-04-22T03:48:45.187Z,101068.13
2023-04-22T03:51:13.133Z,101069.84
2023-04-22T03:53:41.083Z,101078.69
2023-04-22T03:56:09.124Z,101075.19
2023-04-22T03:58:37.025Z,101075.19
2023-04-22T04:01:06.608Z,101066.50
2023-04-22T04:03:34.690Z,101061.28
2023-04-22T04:06:02.868Z,101057.72
2023-04-22T04:08:30.893Z,101058.59
2023-04-22T04:10:58.861Z,101073.50
2023-04-22T04:13:26.818Z,101066.53
2023-04-22T04:15:54.808Z,101070.88
2023-04-22T04:18:24.943Z,101063.03
2023-04-22T04:20:52.917Z,101058.66
2023-04-22T04:23:20.847Z,101073.59
2023-04-22T04:25:48.798Z,101063.94
2023-04-22T04:28:17.780Z,101063.94
2023-04-22T04:30:45.723Z,101063.94
2023-04-22T04:33:13.754Z,101058.66
2023-04-22T04:35:43.382Z,101055.13
2023-04-22T04:38:11.960Z,101061.28
2023-04-22T04:40:39.899Z,101062.97
2023-04-22T04:43:08.625Z,101051.59
2023-04-22T04:45:37.780Z,101048.09
2023-04-22T04:48:07.165Z,101041.09
2023-04-22T04:50:35.322Z,101048.97
2023-04-22T04:53:04.733Z,101055.06
2023-04-22T04:55:32.664Z,101050.72
2023-04-22T04:58:00.664Z,101046.25
2023-04-22T05:00:28.824Z,101038.44
2023-04-22T05:02:57.012Z,101037.50
2023-04-22T05:05:25.117Z,101043.72
2023-04-22T05:07:53.915Z,101046.34
2023-04-22T05:10:23.277Z,101062.91
2023-04-22T05:12:51.296Z,101069.13
2023-04-22T05:15:19.306Z,101058.59
2023-04-22T05:17:47.308Z,101075.25
2023-04-22T05:20:15.315Z,101069.13
2023-04-22T05:22:44.952Z,101056.88
2023-04-22T05:25:12.911Z,101055.06
2023-04-22T05:27:42.226Z,101054.16
2023-04-22T05:30:11.172Z,101048.03
2023-04-22T05:32:39.172Z,101052.34
2023-04-22T05:35:07.952Z,101046.97
2023-04-22T05:37:36.060Z,101036.44
2023-04-22T05:40:04.014Z,101031.13
2023-04-22T05:42:31.930Z,101038.06
2023-04-22T05:45:01.254Z,101057.34
2023-04-22T05:47:29.355Z,101052.94
2023-04-22T05:49:57.332Z,101056.47
2023-04-22T05:52:25.219Z,101052.09
2023-04-22T05:54:53.275Z,101048.53
2023-04-22T05:57:21.234Z,101046.72
2023-04-22T05:59:49.127Z,101052.91
2023-04-22T06:02:18.592Z,101045.88
2023-04-22T06:04:46.922Z,101038.84
2023-04-22T06:07:15.073Z,101030.06
2023-04-22T06:09:43.227Z,101033.53
2023-04-22T06:12:11.769Z,101023.03
2023-04-22T06:14:39.666Z,101024.78
2023-04-22T06:17:09.629Z,101020.34
2023-04-22T06:19:39.218Z,101011.56
2023-04-22T06:22:07.450Z,101009.81
2023-04-22T06:24:35.360Z,101013.31
2023-04-22T06:27:03.465Z,101009.75
2023-04-22T06:29:31.425Z,101007.13
2023-04-22T06:31:59.504Z,101014.06
2023-04-22T06:34:27.423Z,101013.16
2023-04-22T06:36:56.921Z,101014.84
2023-04-22T06:39:24.816Z,101014.84
2023-04-22T06:41:52.793Z,101011.34
2023-04-22T06:44:20.738Z,101015.63
2023-04-22T06:46:48.767Z,101012.13
2023-04-22T06:49:16.751Z,101020.03
2023-04-22T06:51:44.674Z,101014.81
2023-04-22T06:54:13.971Z,101015.63
2023-04-22T06:56:41.930Z,101007.69
2023-04-22T06:59:09.878Z,101014.69
2023-04-22T07:01:37.996Z,101015.53
2023-04-22T07:04:06.154Z,101008.47
2023-04-22T07:06:34.128Z,101007.56
2023-04-22T07:09:02.012Z,101007.53
2023-04-22T07:11:32.097Z,101018.88
2023-04-22T07:14:00.031Z,101017.09
2023-04-22T07:16:28.058Z,101016.19
2023-04-22T07:18:56.117Z,101014.31
2023-04-22T07:21:24.036Z,101009.03
2023-04-22T07:23:52.313Z,101011.56
2023-04-22T07:26:21.186Z,100997.50
2023-04-22T07:28:50.484Z,100998.31
2023-04-22T07:31:18.512Z,101004.41
2023-04-22T07:33:46.493Z,101000.84
2023-04-22T07:36:14.440Z,101004.38
2023-04-22T07:38:42.505Z,101004.31
2023-04-22T07:41:10.463Z,101002.47
2023-04-22T07:43:38.389Z,100999.78
2023-04-22T07:46:07.931Z,100997.06
2023-04-22T07:48:36.506Z,100994.41
2023-04-22T07:51:04.682Z,100992.56
2023-04-22T07:53:32.670Z,100989.84
2023-04-22T07:56:02.254Z,100995.00
2023-04-22T07:58:30.337Z,100994.03
2023-04-22T08:00:58.305Z,100987.81
2023-04-22T08:03:28.109Z,100984.31
2023-04-22T08:05:58.203Z,100979.88
2023-04-22T08:08:26.632Z,100980.75
2023-04-22T08:10:54.572Z,100978.13
2023-04-22T08:13:22.576Z,100977.22
2023-04-22T08:15:50.608Z,100971.09
2023-04-22T08:18:18.575Z,100971.94
2023-04-22T08:20:48.362Z,100973.66
2023-04-22T08:23:16.357Z,100973.66
2023-04-22T08:25:44.334Z,100965.75
2023-04-22T08:28:12.213Z,100967.50
2023-04-22T08:30:40.265Z,100966.59
2023-04-22T08:33:08.244Z,100963.00
2023-04-22T08:35:36.262Z,100967.31
2023-04-22T08:38:05.590Z,100967.31
2023-04-22T08:40:33.533Z,100963.66
2023-04-22T08:43:01.479Z,100956.66
2023-04-22T08:45:29.423Z,100947.84
2023-04-22T08:47:57.441Z,100946.03
2023-04-22T08:50:25.387Z,100953.06
2023-04-22T08:52:53.330Z,100943.31
2023-04-22T08:55:22.803Z,100939.78
2023-04-22T08:57:50.728Z,100942.41
2023-04-22T09:00:20.032Z,100950.25
2023-04-22T09:02:48.482Z,100950.16
2023-04-22T09:05:16.573Z,100942.28
2023-04-22T09:07:44.581Z,100946.56
2023-04-22T09:10:13.053Z,100943.91
2023-04-22T09:12:42.766Z,100948.25
2023-04-22T09:15:11.859Z,100949.91
2023-04-22T09:17:39.835Z,100945.53
2023-04-22T09:20:08.859Z,100942.84
2023-04-22T09:22:41.530Z,100943.63
2023-04-22T09:25:17.480Z,100937.47
2023-04-22T09:27:49.707Z,100945.25
2023-04-22T09:30:19.522Z,100941.66
2023-04-22T09:32:54.003Z,100941.56
2023-04-22T09:35:27.252Z,100938.91
2023-04-22T09:37:55.250Z,100938.78
2023-04-22T09:40:23.468Z,100940.44
2023-04-22T09:42:53.571Z,100936.84
2023-04-22T09:45:28.846Z,100938.47
2023-04-22T09:47:57.127Z,100936.66
2023-04-22T09:50:26.213Z,100929.47
2023-04-22T09:52:56.362Z,100924.97
2023-04-22T09:55:24.674Z,100919.63
2023-04-22T09:57:54.740Z,100917.84
2023-04-22T10:00:23.204Z,100909.06
2023-04-22T10:02:51.236Z,100922.19
2023-04-22T10:05:19.371Z,100917.75
2023-04-22T10:07:47.367Z,100920.34
2023-04-22T10:10:15.674Z,100915.84
2023-04-22T10:12:43.656Z,100907.03
2023-04-22T10:15:13.145Z,100899.84
2023-04-22T10:17:41.172Z,100892.81
2023-04-22T10:20:13.649Z,100887.50
2023-04-22T10:22:42.766Z,100887.44
2023-04-22T10:25:15.141Z,100891.75
2023-04-22T10:27:43.417Z,100886.34
2023-04-22T10:30:13.533Z,100886.25
2023-04-22T10:32:41.520Z,100886.16
2023-04-22T10:35:11.827Z,100879.91
2023-04-22T10:37:44.642Z,100869.22
2023-04-22T10:40:16.289Z,100868.28
2023-04-22T10:42:47.747Z,100863.69
2023-04-22T10:45:17.054Z,100860.84
2023-04-22T10:47:45.008Z,100857.25
2023-04-22T10:50:18.740Z,100851.00
2023-04-22T10:52:49.107Z,100851.88
2023-04-22T10:55:17.380Z,100853.56
2023-04-22T10:57:45.879Z,100841.22
2023-04-22T11:00:35.247Z,100840.28
2023-04-22T11:03:28.304Z,100837.53
2023-04-22T11:06:14.589Z,100829.53
2023-04-22T11:08:45.535Z,100823.31
2023-04-22T11:11:14.247Z,100832.03
2023-04-22T11:13:43.740Z,100824.91
2023-04-22T11:16:13.144Z,100830.94
2023-04-22T11:18:41.106Z,100832.56
2023-04-22T11:21:09.484Z,100827.16
2023-04-22T11:23:37.511Z,100823.47
2023-04-22T11:26:06.322Z,100825.94
2023-04-22T11:28:34.276Z,100816.13
2023-04-22T11:31:06.517Z,100818.69
2023-04-22T11:33:36.136Z,100823.06
2023-04-22T11:36:04.111Z,100825.47
2023-04-22T11:38:33.166Z,100821.53
2023-04-22T11:41:01.112Z,100816.84
2023-04-22T11:43:29.060Z,100807.94
2023-04-22T11:45:57.239Z,100814.88
2023-04-22T11:48:25.279Z,100807.72
2023-04-22T11:51:08.807Z,100805.81
2023-04-22T11:53:38.667Z,100797.81
2023-04-22T11:56:06.661Z,100797.63
2023-04-22T11:58:34.638Z,100793.88
2023-04-22T12:01:02.565Z,100795.41
2023-04-22T12:03:31.348Z,100787.28
2023-04-22T12:06:01.695Z,100780.25
2023-04-22T12:08:32.687Z,100775.81
2023-04-22T12:11:01.818Z,100774.84
2023-04-22T12:13:30.850Z,100777.38
2023-04-22T12:16:00.382Z,100775.56
2023-04-22T12:18:31.794Z,100765.84
2023-04-22T12:21:09.313Z,100764.81
2023-04-22T12:23:42.621Z,100759.38
2023-04-22T12:26:10.650Z,100755.00
2023-04-22T12:28:38.616Z,100754.88
2023-04-22T12:31:06.841Z,100745.03
2023-04-22T12:33:34.827Z,100744.84
2023-04-22T12:36:04.305Z,100750.03
2023-04-22T12:38:32.233Z,100750.78
2023-04-22T12:41:00.351Z,100744.50
2023-04-22T12:43:28.454Z,100744.34
2023-04-22T12:45:56.377Z,100740.63
2023-04-22T12:48:24.304Z,100732.50
2023-04-22T12:50:52.298Z,100734.94
2023-04-22T12:53:21.973Z,100725.03
2023-04-22T12:55:49.940Z,100717.81
2023-04-22T12:58:17.905Z,100719.44
2023-04-22T13:00:45.852Z,100729.03
2023-04-22T13:03:13.893Z,100717.44
2023-04-22T13:05:41.891Z,100712.09
2023-04-22T13:08:09.904Z,100719.97
2023-04-22T13:10:39.342Z,100719.97
2023-04-22T13:15:39.300Z,100708.91
2023-04-22T13:18:07.400Z,100706.84
2023-04-22T13:20:36.009Z,100712.06
2023-04-22T13:23:04.773Z,100708.41
2023-04-22T13:25:32.927Z,100703.97
2023-04-22T13:28:02.259Z,100704.91
2023-04-22T13:30:30.278Z,100700.47
2023-04-22T13:32:58.280Z,100690.53
2023-04-22T13:35:26.222Z,100697.38
2023-04-22T13:37:54.183Z,100692.94
2023-04-22T13:40:22.242Z,100690.38
2023-04-22T13:42:50.238Z,100693.03
2023-04-22T13:45:19.605Z,100685.00
2023-04-22T13:47:47.611Z,100684.94
2023-04-22T13:50:15.620Z,100679.44
2023-04-22T13:52:43.504Z,100672.91
2023-04-22T13:55:11.844Z,100673.31
2023-04-22T13:57:39.850Z,100665.28
2023-04-22T14:00:09.411Z,100669.72
2023-04-22T14:02:38.761Z,100663.50
2023-04-22T14:05:07.729Z,100658.06
2023-04-22T14:07:36.150Z,100652.84
2023-04-22T14:10:04.363Z,100659.13
2023-04-22T14:12:32.293Z,100643.09
2023-04-22T14:15:00.201Z,100651.75
2023-04-22T14:17:28.203Z,100644.53
2023-04-22T14:19:57.829Z,100635.34
2023-04-22T14:22:25.928Z,100625.31
2023-04-22T14:24:53.910Z,100626.88
2023-04-22T14:27:21.821Z,100611.09
2023-04-22T14:29:52.296Z,100615.53
2023-04-22T14:32:20.413Z,100610.28
2023-04-22T14:34:48.430Z,100613.03
2023-04-22T14:37:17.718Z,100612.19
2023-04-22T14:39:45.819Z,100598.16
2023-04-22T14:42:13.804Z,100600.81
2023-04-22T14:44:41.737Z,100598.47
2023-04-22T14:47:09.699Z,100589.78
2023-04-22T14:49:37.850Z,100589.34
2023-04-22T14:52:06.872Z,100588.50
2023-04-22T14:54:36.241Z,100585.59
2023-04-22T14:57:04.197Z,100585.75
2023-04-22T14:59:32.142Z,100583.03
2023-04-22T15:02:00.191Z,100584.19
2023-04-22T15:04:28.356Z,100582.06
2023-04-22T15:06:57.678Z,100573.19
2023-04-22T15:09:25.655Z,100570.81
2023-04-22T15:11:56.515Z,100568.94
2023-04-22T15:14:24.675Z,100566.97
2023-04-22T15:16:52.620Z,100568.66
2023-04-22T15:19:20.558Z,100565.66
2023-04-22T15:21:48.487Z,100563.84
2023-04-22T15:24:16.451Z,100578.44
2023-04-22T15:26:44.386Z,100544.78
2023-04-22T15:29:13.728Z,100554.94
2023-04-22T15:31:41.707Z,100553.94
2023-04-22T15:34:09.705Z,100551.22
2023-04-22T15:36:38.323Z,100542.31
2023-04-22T15:39:06.388Z,100537.94
2023-04-22T15:41:34.991Z,100537.41
2023-04-22T15:44:03.550Z,100532.69
2023-04-22T15:46:33.373Z,100530.13
2023-04-22T15:49:01.870Z,100530.22
2023-04-22T15:51:29.835Z,100525.09
2023-04-22T15:53:58.290Z,100526.88
2023-04-22T15:56:26.589Z,100521.66
2023-04-22T15:58:54.586Z,100517.75
2023-04-22T16:01:22.576Z,100516.69
2023-04-22T16:03:52.147Z,100512.13
2023-04-22T16:06:20.315Z,100514.63
2023-04-22T16:08:48.904Z,100516.16
2023-04-22T16:11:16.869Z,100514.91
2023-04-22T16:13:44.797Z,100502.09
2023-04-22T16:16:12.753Z,100499.69
2023-04-22T16:18:42.858Z,100496.44
2023-04-22T16:21:13.494Z,100497.63
2023-04-22T16:23:41.425Z,100496.94
2023-04-22T16:26:09.497Z,100486.59
2023-04-22T16:28:37.445Z,100485.81
2023-04-22T16:31:05.509Z,100482.41
2023-04-22T16:33:34.068Z,100484.19
2023-04-22T16:36:02.129Z,100476.25
2023-04-22T16:38:31.475Z,100477.13
2023-04-22T16:40:59.426Z,100476.25
2023-04-22T16:43:27.420Z,100471.81
2023-04-22T16:45:55.426Z,100464.72
2023-04-22T16:48:23.521Z,100469.19
2023-04-22T16:50:52.625Z,100456.25
2023-04-22T16:53:20.601Z,100458.31
2023-04-22T16:55:49.913Z,100454.09
2023-04-22T16:58:17.927Z,100449.91
2023-04-22T17:00:47.596Z,100457.94
2023-04-22T17:03:16.466Z,100452.88
2023-04-22T17:05:44.560Z,100451.31
2023-04-22T17:08:12.545Z,100448.13
2023-04-22T17:10:45.097Z,100451.00
2023-04-22T17:13:14.645Z,100444.09
2023-04-22T17:15:42.618Z,100439.06
2023-04-22T17:18:10.710Z,100438.34
2023-04-22T17:20:38.660Z,100437.75
2023-04-22T17:23:06.597Z,100433.63
2023-04-22T17:25:34.545Z,100436.44
2023-04-22T17:28:02.582Z,100438.31
2023-04-22T17:30:32.004Z,100440.19
2023-04-22T17:33:00.008Z,100438.44
2023-04-22T17:35:27.988Z,100434.91
2023-04-22T17:37:57.793Z,100430.50
2023-04-22T17:40:25.848Z,100431.38
2023-04-22T17:42:53.808Z,100429.59
2023-04-22T17:45:21.802Z,100429.69
2023-04-22T17:47:51.254Z,100433.34
2023-04-22T17:50:19.733Z,100428.03
2023-04-22T17:52:47.694Z,100431.78
2023-04-22T17:55:15.644Z,100423.16
2023-04-22T17:57:43.609Z,100432.06
2023-04-22T18:00:14.508Z,100429.13
2023-04-22T18:02:42.691Z,100429.00
2023-04-22T18:05:12.379Z,100424.84
2023-04-22T18:07:40.369Z,100426.78
2023-04-22T18:10:10.050Z,100417.31
2023-04-22T18:12:37.952Z,100422.75
2023-04-22T18:15:07.111Z,100426.47
2023-04-22T18:17:35.123Z,100427.47
2023-04-22T18:20:16.604Z,100417.91
